Time;durP1;ratioP1;P1;durP2;ratioP2;P2;SDS_P1;SDS_P2;PMS_P1;PMS_P2;Temp;Humidity;BMP_temperature;BMP_pressure;BME280_temperature;BME280_humidity;BME280_pressure;Samples;Min_cycle;Max_cycle;Signal;HPM_P1;HPM_P2
2023/07/31 00:01:01;;;;;;;4.78;2.20;;;15.90;99.90;;;;;;5033478;28;20037;-74
2023/07/31 00:03:27;;;;;;;8.13;2.72;;;15.90;99.90;;;;;;5033486;28;20086;-74
2023/07/31 00:05:53;;;;;;;4.00;2.67;;;15.80;99.90;;;;;;5033418;28;20037;-74
2023/07/31 00:08:18;;;;;;;4.00;2.58;;;15.90;99.90;;;;;;5033435;28;20124;-74
2023/07/31 00:10:44;;;;;;;5.53;2.97;;;15.80;99.90;;;;;;5033208;28;20048;-74
2023/07/31 00:13:09;;;;;;;3.67;2.35;;;15.80;99.90;;;;;;5033556;28;20073;-74
2023/07/31 00:15:35;;;;;;;6.05;2.72;;;15.80;99.90;;;;;;5033250;28;20498;-74
2023/07/31 00:18:01;;;;;;;4.80;2.58;;;15.80;99.90;;;;;;5033458;28;20120;-74
2023/07/31 00:20:26;;;;;;;4.95;2.60;;;15.80;99.90;;;;;;5016925;28;20059;-74
2023/07/31 00:22:52;;;;;;;6.15;2.80;;;15.80;99.90;;;;;;5033358;28;20488;-74
2023/07/31 00:25:18;;;;;;;4.40;2.65;;;15.90;99.90;;;;;;5033071;28;20518;-74
2023/07/31 00:27:45;;;;;;;5.40;2.90;;;15.80;99.90;;;;;;5033047;28;20033;-74
2023/07/31 00:30:11;;;;;;;4.15;2.60;;;15.80;99.90;;;;;;5032895;28;20079;-74
2023/07/31 00:32:37;;;;;;;5.47;2.90;;;15.70;99.90;;;;;;5032928;28;20073;-74
2023/07/31 00:35:03;;;;;;;6.03;2.95;;;15.70;99.90;;;;;;5032898;28;20498;-74
2023/07/31 00:37:28;;;;;;;4.82;3.05;;;15.70;99.90;;;;;;5033112;28;20041;-74
2023/07/31 00:39:54;;;;;;;4.80;3.20;;;15.80;99.90;;;;;;5032954;28;20410;-74
2023/07/31 00:42:19;;;;;;;6.40;3.35;;;15.70;99.90;;;;;;5032744;28;20077;-74
2023/07/31 00:44:45;;;;;;;4.65;2.83;;;15.70;99.90;;;;;;5032432;28;20045;-74
2023/07/31 00:47:11;;;;;;;4.30;2.90;;;15.70;99.90;;;;;;5032877;28;20045;-74
2023/07/31 00:49:37;;;;;;;6.97;3.05;;;15.70;99.90;;;;;;5032423;28;20049;-74
2023/07/31 00:52:03;;;;;;;5.88;2.80;;;15.70;99.90;;;;;;5032495;28;20045;-74
2023/07/31 00:54:29;;;;;;;4.68;3.00;;;15.70;99.90;;;;;;5016092;28;20120;-74
2023/07/31 00:56:54;;;;;;;5.35;2.65;;;15.70;99.90;;;;;;5032500;28;20072;-74
2023/07/31 00:59:20;;;;;;;3.40;2.25;;;15.70;99.90;;;;;;5015952;28;20120;-74
2023/07/31 01:01:46;;;;;;;3.75;2.15;;;15.70;99.90;;;;;;5032279;28;20100;-74
2023/07/31 01:04:13;;;;;;;3.83;1.88;;;15.70;99.90;;;;;;5032339;28;20480;-74
2023/07/31 01:06:55;;;;;;;4.35;2.20;;;15.60;99.90;;;;;;5032384;28;20135;-74
2023/07/31 01:09:45;;;;;;;6.10;1.80;;;15.70;99.90;;;;;;5032373;28;20049;-74
2023/07/31 01:12:15;;;;;;;3.03;1.55;;;15.60;99.90;;;;;;5032204;28;20049;-74
2023/07/31 01:14:40;;;;;;;3.35;1.67;;;15.50;99.90;;;;;;5032255;28;20063;-74
2023/07/31 01:17:06;;;;;;;2.75;1.33;;;15.50;99.90;;;;;;5032483;28;20041;-74
2023/07/31 01:19:32;;;;;;;2.75;1.30;;;15.50;99.90;;;;;;5032359;28;20402;-74
2023/07/31 01:22:35;;;;;;;2.90;1.40;;;15.60;99.90;;;;;;5015971;28;20095;-74
2023/07/31 01:25:00;;;;;;;3.00;1.35;;;15.70;99.90;;;;;;5032339;28;20045;-74
2023/07/31 01:27:32;;;;;;;2.97;1.33;;;15.50;99.90;;;;;;5032037;28;20514;-74
2023/07/31 01:30:10;;;;;;;2.17;1.00;;;15.50;99.90;;;;;;5032008;28;20042;-74
2023/07/31 01:32:40;;;;;;;2.65;1.25;;;15.60;99.90;;;;;;5031949;28;20121;-74
2023/07/31 01:35:06;;;;;;;2.97;0.80;;;15.50;99.90;;;;;;5015527;28;20498;-74
2023/07/31 01:37:32;;;;;;;1.88;1.13;;;15.50;99.90;;;;;;5032391;28;20053;-74
2023/07/31 01:39:57;;;;;;;1.48;0.93;;;15.50;99.90;;;;;;5015704;28;20034;-74
2023/07/31 01:42:23;;;;;;;2.13;1.10;;;15.50;99.90;;;;;;5031869;28;20092;-74
2023/07/31 01:44:48;;;;;;;2.92;1.45;;;15.50;99.90;;;;;;5032135;28;20060;-74
2023/07/31 01:47:14;;;;;;;1.60;0.82;;;15.60;99.90;;;;;;5015397;28;20052;-74
2023/07/31 01:49:40;;;;;;;2.55;1.13;;;15.60;99.90;;;;;;5031928;28;20049;-74
2023/07/31 01:52:06;;;;;;;1.92;0.98;;;15.70;99.90;;;;;;5031733;28;20468;-74
2023/07/31 01:54:31;;;;;;;3.00;1.30;;;15.70;99.90;;;;;;5031789;28;20038;-74
2023/07/31 01:56:57;;;;;;;2.08;1.10;;;15.70;99.90;;;;;;5035177;28;20080;-74
2023/07/31 01:59:22;;;;;;;6.85;1.23;;;15.60;99.90;;;;;;5035852;28;20045;-74
2023/07/31 02:01:48;;;;;;;1.83;0.93;;;15.70;99.90;;;;;;5035774;28;20039;-74
2023/07/31 02:04:14;;;;;;;2.95;0.98;;;15.70;99.90;;;;;;5035720;28;20041;-74
2023/07/31 02:06:39;;;;;;;2.35;0.80;;;15.70;99.90;;;;;;5035680;28;20057;-74
2023/07/31 02:09:05;;;;;;;1.70;0.90;;;15.70;99.90;;;;;;5035642;28;20033;-74
2023/07/31 02:11:31;;;;;;;2.08;1.02;;;15.80;99.90;;;;;;5035461;28;20034;-74
2023/07/31 02:13:56;;;;;;;1.33;0.75;;;15.80;99.90;;;;;;5035861;28;20041;-74
2023/07/31 02:16:22;;;;;;;1.58;1.00;;;15.80;99.90;;;;;;5035543;28;20402;-74
2023/07/31 02:18:47;;;;;;;1.23;0.70;;;15.80;99.90;;;;;;5035497;28;20033;-74
2023/07/31 02:21:13;;;;;;;1.15;0.82;;;15.80;99.90;;;;;;5035307;28;20191;-74
2023/07/31 02:23:38;;;;;;;0.90;0.55;;;15.80;99.90;;;;;;5035400;28;20045;-74
2023/07/31 02:26:04;;;;;;;1.38;0.75;;;15.70;99.90;;;;;;5019158;28;20034;-74
2023/07/31 02:28:30;;;;;;;1.35;0.80;;;15.90;99.90;;;;;;5035330;28;20528;-74
2023/07/31 02:30:55;;;;;;;1.48;0.80;;;15.80;99.90;;;;;;5035059;28;20041;-74
2023/07/31 02:33:21;;;;;;;0.90;0.50;;;15.80;99.90;;;;;;5035500;28;20029;-74
2023/07/31 02:35:47;;;;;;;1.83;0.80;;;15.90;99.90;;;;;;5035147;28;20037;-74
2023/07/31 02:38:12;;;;;;;0.95;0.52;;;15.90;99.90;;;;;;5035126;28;20064;-74
2023/07/31 02:40:40;;;;;;;1.65;0.70;;;15.80;99.90;;;;;;5034972;28;20087;-74
2023/07/31 02:43:07;;;;;;;0.90;0.50;;;15.90;99.90;;;;;;5035284;28;20049;-73
2023/07/31 02:45:32;;;;;;;0.75;0.60;;;15.80;99.90;;;;;;5035242;28;20517;-73
2023/07/31 02:47:58;;;;;;;1.33;0.60;;;15.80;99.90;;;;;;5034953;28;20041;-73
2023/07/31 02:50:23;;;;;;;0.85;0.43;;;15.80;99.90;;;;;;5034695;28;20037;-73
2023/07/31 02:52:49;;;;;;;2.22;0.55;;;15.80;99.90;;;;;;5034779;28;20134;-73
2023/07/31 02:55:15;;;;;;;0.80;0.52;;;15.90;99.90;;;;;;5018340;28;20037;-73
2023/07/31 02:57:40;;;;;;;1.13;0.60;;;15.90;99.90;;;;;;5035047;28;20076;-73
2023/07/31 03:00:06;;;;;;;1.92;0.80;;;16.00;99.90;;;;;;5034670;28;20044;-73
2023/07/31 03:02:32;;;;;;;1.00;0.60;;;16.00;99.90;;;;;;5034686;28;20072;-73
2023/07/31 03:04:58;;;;;;;1.73;0.60;;;15.90;99.90;;;;;;5034604;28;20048;-73
2023/07/31 03:07:23;;;;;;;0.57;0.45;;;15.90;99.90;;;;;;5034715;28;20037;-73
2023/07/31 03:09:49;;;;;;;1.58;0.65;;;16.00;99.90;;;;;;5034478;28;20387;-73
2023/07/31 03:12:15;;;;;;;2.22;1.02;;;16.00;99.90;;;;;;5034521;28;20045;-73
2023/07/31 03:14:40;;;;;;;1.35;0.70;;;16.00;99.90;;;;;;5034448;28;20111;-74
2023/07/31 03:17:06;;;;;;;1.83;1.00;;;16.10;99.90;;;;;;5034629;28;20056;-73
2023/07/31 03:19:32;;;;;;;2.00;0.85;;;16.00;99.90;;;;;;5034321;28;20037;-73
2023/07/31 03:21:58;;;;;;;2.90;0.77;;;16.00;99.90;;;;;;5034604;28;20034;-74
2023/07/31 03:24:24;;;;;;;2.50;1.02;;;16.10;99.90;;;;;;5034280;28;20041;-74
2023/07/31 03:26:50;;;;;;;1.38;0.52;;;16.10;99.90;;;;;;5034470;28;20048;-74
2023/07/31 03:29:15;;;;;;;1.02;0.40;;;16.10;99.90;;;;;;5034228;28;20037;-73
2023/07/31 03:31:41;;;;;;;1.95;0.60;;;16.10;99.90;;;;;;5034109;28;20095;-73
2023/07/31 03:34:06;;;;;;;2.15;0.30;;;16.20;99.90;;;;;;5034126;28;20512;-73
2023/07/31 03:36:32;;;;;;;1.20;0.47;;;16.20;99.90;;;;;;5034077;28;20037;-73
2023/07/31 03:38:58;;;;;;;0.63;0.20;;;16.10;99.90;;;;;;5034111;28;20044;-73
2023/07/31 03:41:23;;;;;;;1.92;0.30;;;16.20;99.90;;;;;;5033855;28;20041;-73
2023/07/31 03:43:51;;;;;;;0.88;0.35;;;16.20;99.90;;;;;;5033914;28;20045;-73
2023/07/31 03:46:17;;;;;;;1.05;0.40;;;16.20;99.90;;;;;;5017381;28;20387;-73
2023/07/31 03:48:43;;;;;;;1.45;0.38;;;16.10;99.90;;;;;;5033835;28;20037;-73
2023/07/31 03:51:08;;;;;;;0.75;0.20;;;16.20;99.90;;;;;;5033744;28;20041;-73
2023/07/31 03:53:34;;;;;;;0.93;0.40;;;16.20;99.90;;;;;;5033736;28;20406;-73
2023/07/31 03:55:59;;;;;;;1.63;0.40;;;16.20;99.90;;;;;;5033719;28;20108;-73
2023/07/31 03:58:25;;;;;;;1.10;0.35;;;16.20;99.90;;;;;;5033633;28;20041;-74
2023/07/31 04:00:51;;;;;;;0.40;0.20;;;16.20;99.90;;;;;;5033509;28;20049;-73
2023/07/31 04:03:16;;;;;;;1.17;0.30;;;16.20;99.90;;;;;;5033813;28;20120;-73
2023/07/31 04:05:42;;;;;;;0.80;0.32;;;16.20;99.90;;;;;;5033518;28;20433;-73
2023/07/31 04:08:07;;;;;;;1.33;0.40;;;16.30;99.90;;;;;;5033696;28;20037;-73
2023/07/31 04:10:33;;;;;;;1.10;0.40;;;16.20;99.90;;;;;;5033253;28;20037;-73
2023/07/31 04:13:00;;;;;;;0.73;0.30;;;16.30;99.90;;;;;;5033372;28;20037;-73
2023/07/31 04:15:26;;;;;;;2.33;0.40;;;16.30;99.90;;;;;;5017014;28;20041;-73
2023/07/31 04:17:51;;;;;;;1.25;0.30;;;16.30;99.90;;;;;;5032947;28;20121;-73
2023/07/31 04:20:17;;;;;;;1.88;0.60;;;16.30;99.90;;;;;;5032962;28;20490;-73
2023/07/31 04:22:42;;;;;;;1.55;0.40;;;16.20;99.90;;;;;;5033150;28;20037;-73
2023/07/31 04:25:08;;;;;;;2.65;0.50;;;16.20;99.90;;;;;;5033198;28;20094;-74
2023/07/31 04:27:34;;;;;;;3.20;0.60;;;16.10;99.90;;;;;;5033374;28;20039;-74
2023/07/31 04:29:59;;;;;;;7.30;1.02;;;16.30;99.90;;;;;;5033092;28;20069;-74
2023/07/31 04:32:25;;;;;;;3.40;1.00;;;16.30;99.90;;;;;;5033156;28;20049;-74
2023/07/31 04:34:50;;;;;;;1.77;0.82;;;16.20;99.90;;;;;;5016582;28;20072;-74
2023/07/31 04:37:16;;;;;;;2.78;0.70;;;16.20;99.90;;;;;;5032947;28;20049;-74
2023/07/31 04:39:42;;;;;;;1.90;0.73;;;16.20;99.90;;;;;;5033032;28;20033;-74
2023/07/31 04:42:07;;;;;;;3.28;0.75;;;16.30;99.90;;;;;;5032870;28;20052;-74
2023/07/31 04:44:33;;;;;;;3.88;1.23;;;16.30;99.90;;;;;;5016333;28;20040;-74
2023/07/31 04:46:58;;;;;;;4.15;1.10;;;16.20;99.90;;;;;;5016329;28;20108;-74
2023/07/31 04:49:24;;;;;;;3.15;1.25;;;16.30;99.90;;;;;;5032618;28;20041;-74
2023/07/31 04:51:50;;;;;;;5.85;1.33;;;16.30;99.90;;;;;;5032553;28;20057;-73
2023/07/31 04:54:15;;;;;;;6.22;1.90;;;16.30;99.90;;;;;;5032632;28;20029;-73
2023/07/31 04:56:41;;;;;;;8.70;2.67;;;16.30;99.90;;;;;;5032910;28;20091;-74
2023/07/31 04:59:07;;;;;;;7.95;3.33;;;16.30;99.90;;;;;;5016148;28;20379;-74
2023/07/31 05:01:32;;;;;;;11.18;3.92;;;16.40;99.90;;;;;;5032489;28;20045;-74
2023/07/31 05:03:58;;;;;;;9.57;3.75;;;16.40;99.90;;;;;;5016104;28;20044;-74
2023/07/31 05:06:23;;;;;;;10.88;4.22;;;16.40;99.90;;;;;;5032384;28;20101;-74
2023/07/31 05:08:49;;;;;;;12.90;4.82;;;16.30;99.90;;;;;;5032422;28;20045;-74
2023/07/31 05:11:14;;;;;;;13.05;5.25;;;16.50;99.90;;;;;;5016243;28;20038;-74
2023/07/31 05:13:40;;;;;;;19.17;6.82;;;16.40;99.90;;;;;;5032252;28;20469;-73
2023/07/31 05:16:05;;;;;;;19.65;6.68;;;16.50;99.90;;;;;;5015824;28;20037;-73
2023/07/31 05:18:31;;;;;;;25.20;7.38;;;16.50;99.90;;;;;;5015722;28;20033;-73
2023/07/31 05:20:57;;;;;;;22.40;6.80;;;16.60;99.90;;;;;;5032112;28;20041;-73
2023/07/31 05:23:22;;;;;;;17.05;6.32;;;16.50;99.90;;;;;;5032084;28;20041;-73
2023/07/31 05:25:48;;;;;;;25.55;7.63;;;16.50;99.90;;;;;;5015943;28;20041;-73
2023/07/31 05:28:13;;;;;;;19.08;6.82;;;16.60;99.90;;;;;;5032007;28;20041;-73
2023/07/31 05:30:39;;;;;;;26.77;8.05;;;16.60;99.90;;;;;;5030999;28;20049;-73
2023/07/31 05:33:04;;;;;;;17.17;6.40;;;16.60;99.90;;;;;;5031945;28;20087;-73
2023/07/31 05:35:30;;;;;;;25.77;7.20;;;16.60;99.90;;;;;;5031973;28;20038;-73
2023/07/31 05:37:55;;;;;;;20.90;7.45;;;16.70;99.90;;;;;;5032157;28;20037;-74
2023/07/31 05:40:21;;;;;;;27.15;7.57;;;16.60;99.90;;;;;;5015399;28;20510;-74
2023/07/31 05:42:47;;;;;;;22.98;7.60;;;16.70;99.90;;;;;;5031876;28;20091;-73
2023/07/31 05:45:13;;;;;;;25.02;7.20;;;16.60;99.90;;;;;;5031833;28;20044;-73
2023/07/31 05:47:39;;;;;;;26.05;7.88;;;16.70;99.90;;;;;;5031857;28;20053;-73
2023/07/31 05:50:05;;;;;;;28.23;8.52;;;16.70;99.90;;;;;;5015382;28;20037;-73
2023/07/31 05:52:31;;;;;;;27.83;8.05;;;16.70;99.90;;;;;;5031915;28;20045;-73
2023/07/31 05:54:56;;;;;;;28.27;7.93;;;16.60;99.90;;;;;;5031771;28;20406;-74
2023/07/31 05:57:22;;;;;;;27.42;7.40;;;16.80;99.90;;;;;;5031822;28;20091;-74
2023/07/31 05:59:47;;;;;;;24.92;7.95;;;16.70;99.90;;;;;;5015269;28;20033;-74
2023/07/31 06:02:13;;;;;;;25.35;8.15;;;16.60;99.90;;;;;;5015293;28;20073;-74
2023/07/31 06:04:39;;;;;;;28.27;8.30;;;16.70;99.90;;;;;;5031695;28;20056;-74
2023/07/31 06:07:05;;;;;;;27.95;7.95;;;16.70;99.90;;;;;;5031827;28;20041;-74
2023/07/31 06:09:31;;;;;;;31.55;9.00;;;16.60;99.90;;;;;;5015375;28;20041;-74
2023/07/31 06:11:56;;;;;;;28.58;8.80;;;16.70;99.90;;;;;;5031664;28;20107;-74
2023/07/31 06:14:22;;;;;;;25.60;8.20;;;16.70;99.90;;;;;;5031838;28;20065;-74
2023/07/31 06:16:48;;;;;;;26.42;8.55;;;16.70;99.90;;;;;;5031566;28;20037;-74
2023/07/31 06:19:13;;;;;;;28.33;8.73;;;16.70;99.90;;;;;;5031566;28;20038;-74
2023/07/31 06:21:39;;;;;;;30.90;7.75;;;16.70;99.90;;;;;;5031391;28;20100;-73
2023/07/31 06:24:08;;;;;;;21.55;7.00;;;16.70;99.90;;;;;;5031814;28;20508;-73
2023/07/31 06:26:33;;;;;;;14.45;6.03;;;16.80;99.90;;;;;;5015525;28;20043;-74
2023/07/31 06:28:59;;;;;;;23.50;7.07;;;16.70;99.90;;;;;;5031481;28;20046;-74
2023/07/31 06:31:25;;;;;;;16.23;6.25;;;16.70;99.90;;;;;;5031256;28;20123;-74
2023/07/31 06:33:52;;;;;;;21.00;7.18;;;16.70;99.90;;;;;;5031411;28;20124;-74
2023/07/31 06:36:18;;;;;;;25.10;7.68;;;16.80;99.90;;;;;;5031430;28;20049;-74
2023/07/31 06:38:43;;;;;;;23.02;7.03;;;16.70;99.90;;;;;;5015170;28;20041;-74
2023/07/31 06:41:10;;;;;;;27.33;7.70;;;16.70;99.90;;;;;;5031588;28;20516;-74
2023/07/31 06:43:36;;;;;;;24.58;8.15;;;16.80;99.90;;;;;;5035047;28;20128;-74
2023/07/31 06:46:06;;;;;;;26.58;8.35;;;16.80;99.90;;;;;;5035047;28;20128;-74
2023/07/31 06:48:32;;;;;;;28.00;8.43;;;16.70;99.90;;;;;;5034951;28;20041;-74
2023/07/31 06:50:58;;;;;;;26.83;8.52;;;16.70;99.90;;;;;;5034660;28;20053;-74
2023/07/31 06:53:24;;;;;;;26.38;8.75;;;16.70;99.90;;;;;;5018399;28;20041;-74
2023/07/31 06:55:51;;;;;;;30.58;9.07;;;16.80;99.90;;;;;;5035094;28;20182;-74
2023/07/31 06:58:17;;;;;;;29.58;9.55;;;16.80;99.90;;;;;;5034796;28;20045;-74
2023/07/31 07:00:42;;;;;;;25.38;8.65;;;16.80;99.90;;;;;;5034648;28;20030;-73
2023/07/31 07:03:08;;;;;;;24.83;9.02;;;16.70;99.90;;;;;;5034755;28;20033;-73
2023/07/31 07:05:34;;;;;;;28.40;9.45;;;16.80;99.90;;;;;;5034879;28;20521;-73
2023/07/31 07:08:00;;;;;;;20.77;7.70;;;16.80;99.90;;;;;;5034576;28;20405;-73
2023/07/31 07:10:25;;;;;;;20.25;7.63;;;16.70;99.90;;;;;;5034769;28;20037;-73
2023/07/31 07:12:51;;;;;;;19.77;6.97;;;16.70;99.90;;;;;;5017992;28;20045;-73
2023/07/31 07:15:17;;;;;;;16.25;5.65;;;16.70;99.90;;;;;;5034744;28;20041;-73
2023/07/31 07:17:42;;;;;;;19.90;6.47;;;16.70;99.90;;;;;;5017943;28;20540;-73
2023/07/31 07:20:08;;;;;;;13.50;5.72;;;16.80;99.90;;;;;;5034304;28;20076;-73
2023/07/31 07:22:34;;;;;;;10.77;4.70;;;16.70;99.90;;;;;;5034305;28;20037;-73
2023/07/31 07:24:59;;;;;;;10.73;4.10;;;16.70;99.90;;;;;;5034254;28;20069;-74
2023/07/31 07:27:25;;;;;;;10.60;4.30;;;16.80;99.90;;;;;;5034256;28;20042;-74
2023/07/31 07:29:52;;;;;;;12.82;4.38;;;16.70;99.90;;;;;;5034373;28;20053;-73
2023/07/31 07:32:18;;;;;;;7.22;3.53;;;16.80;99.90;;;;;;5017656;28;20045;-73
2023/07/31 07:34:44;;;;;;;8.65;3.45;;;16.80;99.90;;;;;;5034340;28;20559;-73
2023/07/31 07:37:09;;;;;;;7.82;3.72;;;16.80;99.90;;;;;;5034103;28;20479;-73
2023/07/31 07:39:35;;;;;;;9.73;3.90;;;16.80;99.90;;;;;;5034045;28;20092;-73
2023/07/31 07:42:00;;;;;;;10.25;4.18;;;16.90;99.90;;;;;;5034201;28;20091;-73
2023/07/31 07:44:26;;;;;;;9.55;3.55;;;16.80;99.90;;;;;;5033904;28;20049;-73
2023/07/31 07:46:52;;;;;;;10.30;4.20;;;16.80;99.90;;;;;;5033865;28;20095;-73
2023/07/31 07:49:18;;;;;;;8.75;3.20;;;16.80;99.90;;;;;;5017518;28;20128;-74
2023/07/31 07:51:43;;;;;;;6.53;3.33;;;16.90;99.90;;;;;;5033692;28;20034;-73
2023/07/31 07:54:09;;;;;;;8.38;3.47;;;16.90;99.90;;;;;;5016278;28;20033;-73
2023/07/31 07:56:36;;;;;;;6.88;3.13;;;16.80;99.90;;;;;;5033696;28;20041;-73
2023/07/31 07:59:01;;;;;;;5.72;2.88;;;16.70;99.90;;;;;;5033977;28;20095;-73
2023/07/31 08:01:27;;;;;;;5.38;2.63;;;16.90;99.90;;;;;;5033511;28;20034;-73
2023/07/31 08:03:53;;;;;;;6.35;2.50;;;16.90;99.90;;;;;;5033800;28;20045;-73
2023/07/31 08:06:18;;;;;;;4.28;2.10;;;16.80;99.90;;;;;;5033504;28;20510;-73
2023/07/31 08:08:44;;;;;;;6.10;2.65;;;16.90;99.90;;;;;;5033727;28;20045;-74
2023/07/31 08:11:10;;;;;;;5.07;2.28;;;16.90;99.90;;;;;;5033247;28;20469;-73
2023/07/31 08:13:36;;;;;;;6.00;2.28;;;16.90;99.90;;;;;;5033533;28;20032;-73
2023/07/31 08:16:03;;;;;;;7.45;2.63;;;16.90;99.90;;;;;;5016901;28;20033;-73
2023/07/31 08:18:28;;;;;;;4.72;2.30;;;16.90;99.90;;;;;;5033754;28;20041;-73
2023/07/31 08:20:54;;;;;;;4.93;1.95;;;17.00;99.90;;;;;;5033204;28;20417;-73
2023/07/31 08:23:20;;;;;;;4.90;2.40;;;17.00;99.90;;;;;;5033334;28;20065;-73
2023/07/31 08:25:46;;;;;;;4.80;2.00;;;17.00;99.90;;;;;;5016912;28;20124;-73
2023/07/31 08:28:11;;;;;;;2.95;1.98;;;17.20;99.90;;;;;;5033053;28;20045;-74
2023/07/31 08:30:37;;;;;;;4.03;1.70;;;17.00;99.90;;;;;;5016558;28;20029;-73
2023/07/31 08:33:02;;;;;;;5.40;1.90;;;17.10;99.90;;;;;;5032899;28;20047;-73
2023/07/31 08:35:28;;;;;;;4.00;1.70;;;17.00;99.90;;;;;;5032968;28;20037;-73
2023/07/31 08:37:54;;;;;;;3.25;1.58;;;17.00;99.90;;;;;;5032917;28;20033;-73
2023/07/31 08:40:21;;;;;;;3.63;1.55;;;17.10;99.90;;;;;;5033282;28;20042;-73
2023/07/31 08:42:48;;;;;;;2.90;1.60;;;17.10;99.90;;;;;;5033081;28;20111;-73
2023/07/31 08:45:16;;;;;;;3.38;1.60;;;17.10;99.90;;;;;;5032752;28;20051;-73
2023/07/31 08:47:48;;;;;;;3.50;1.50;;;17.10;99.90;;;;;;5032713;28;20564;-73
2023/07/31 08:50:16;;;;;;;3.42;1.20;;;17.20;99.90;;;;;;5032700;28;20505;-73
2023/07/31 08:52:41;;;;;;;3.83;1.80;;;17.20;99.90;;;;;;5032514;28;20049;-73
2023/07/31 08:55:08;;;;;;;3.97;1.70;;;17.30;99.90;;;;;;5032843;28;20026;-73
2023/07/31 08:57:38;;;;;;;2.03;1.33;;;17.30;99.90;;;;;;5032571;28;20029;-74
2023/07/31 09:00:05;;;;;;;3.20;1.60;;;17.30;99.90;;;;;;5016294;28;20041;-73
2023/07/31 09:02:41;;;;;;;2.40;1.58;;;17.20;99.90;;;;;;5034488;28;20123;-73
2023/07/31 09:05:07;;;;;;;2.47;1.20;;;17.40;99.90;;;;;;5032312;28;20102;-73
2023/07/31 09:07:35;;;;;;;2.40;1.30;;;17.30;99.90;;;;;;5032367;28;20417;-73
2023/07/31 09:10:02;;;;;;;3.03;1.10;;;17.50;99.90;;;;;;5032262;28;20417;-73
2023/07/31 09:12:28;;;;;;;1.98;0.88;;;17.60;99.90;;;;;;5032246;28;20503;-73
2023/07/31 09:14:53;;;;;;;2.05;0.90;;;17.50;99.90;;;;;;5032545;28;20486;-73
2023/07/31 09:17:36;;;;;;;1.73;0.88;;;17.50;99.90;;;;;;5032211;28;20044;-73
2023/07/31 09:20:18;;;;;;;1.55;1.00;;;17.50;99.90;;;;;;5015664;28;20610;-73
2023/07/31 09:22:44;;;;;;;2.57;1.10;;;17.50;99.90;;;;;;5015772;28;20045;-73
2023/07/31 09:25:18;;;;;;;1.80;0.93;;;17.50;99.90;;;;;;5032089;28;20045;-73
2023/07/31 09:27:51;;;;;;;2.17;0.80;;;17.50;99.90;;;;;;5032072;28;20037;-73
2023/07/31 09:30:18;;;;;;;2.78;0.77;;;17.50;99.90;;;;;;5032224;28;20057;-73
2023/07/31 09:32:44;;;;;;;1.70;0.68;;;17.40;99.90;;;;;;5015623;28;20518;-73
2023/07/31 09:35:31;;;;;;;1.90;0.70;;;17.60;99.90;;;;;;5031984;28;20052;-73
2023/07/31 09:38:11;;;;;;;2.63;0.70;;;17.60;99.90;;;;;;5032040;28;20033;-73
2023/07/31 09:40:45;;;;;;;1.20;0.75;;;17.60;99.90;;;;;;5032149;28;20041;-73
2023/07/31 09:43:13;;;;;;;1.20;0.60;;;17.60;99.90;;;;;;5032204;28;20060;-73
2023/07/31 09:45:40;;;;;;;3.95;0.60;;;17.60;99.90;;;;;;5032121;28;20195;-73
2023/07/31 09:48:16;;;;;;;4.50;0.77;;;17.60;99.90;;;;;;5031856;28;20056;-73
2023/07/31 09:50:46;;;;;;;1.65;0.77;;;17.70;99.90;;;;;;5015254;28;20543;-73
2023/07/31 09:53:13;;;;;;;2.55;0.73;;;17.80;99.90;;;;;;5031864;28;20051;-73
2023/07/31 09:55:40;;;;;;;1.15;0.60;;;17.80;99.90;;;;;;5031791;28;20121;-73
2023/07/31 09:58:08;;;;;;;1.00;0.70;;;18.00;99.90;;;;;;5031732;28;20041;-73
2023/07/31 10:00:34;;;;;;;1.02;0.50;;;17.90;99.90;;;;;;5031608;28;20490;-73
2023/07/31 10:03:01;;;;;;;1.88;0.60;;;18.20;99.90;;;;;;5031744;28;20049;-73
2023/07/31 10:05:34;;;;;;;2.45;0.70;;;18.00;99.90;;;;;;5031727;28;20041;-73
2023/07/31 10:08:00;;;;;;;0.70;0.50;;;18.10;99.90;;;;;;5031891;28;20048;-73
2023/07/31 10:10:27;;;;;;;1.52;0.77;;;18.10;99.90;;;;;;5031499;28;20041;-73
2023/07/31 10:12:53;;;;;;;1.63;0.60;;;18.30;99.90;;;;;;5031533;28;20045;-73
2023/07/31 10:15:19;;;;;;;2.65;0.75;;;18.40;99.90;;;;;;5031629;28;20087;-73
2023/07/31 10:17:47;;;;;;;0.77;0.40;;;18.50;99.90;;;;;;5034252;28;20034;-72
2023/07/31 10:20:16;;;;;;;0.85;0.50;;;18.50;99.90;;;;;;5035479;28;20073;-73
2023/07/31 10:22:42;;;;;;;1.52;0.77;;;18.50;99.90;;;;;;5018991;28;20045;-73
2023/07/31 10:25:09;;;;;;;1.85;0.90;;;18.40;99.90;;;;;;5035706;28;20079;-73
2023/07/31 10:27:41;;;;;;;1.48;0.77;;;18.40;99.90;;;;;;5019202;28;20055;-73
2023/07/31 10:30:11;;;;;;;2.50;1.10;;;18.40;99.90;;;;;;5035272;28;20045;-73
2023/07/31 10:32:40;;;;;;;1.88;0.88;;;18.40;99.90;;;;;;5018767;28;20094;-73
2023/07/31 10:35:06;;;;;;;1.10;0.90;;;18.50;99.90;;;;;;5035507;28;20049;-73
2023/07/31 10:37:41;;;;;;;1.40;1.20;;;18.60;99.90;;;;;;5035181;28;20167;-73
2023/07/31 10:40:12;;;;;;;1.45;0.90;;;18.50;99.90;;;;;;5035363;28;20080;-73
2023/07/31 10:43:11;;;;;;;1.08;0.77;;;18.50;99.90;;;;;;5035145;28;20041;-73
2023/07/31 10:45:39;;;;;;;1.17;0.52;;;18.60;99.90;;;;;;5020266;28;20575;-73
2023/07/31 10:48:15;;;;;;;1.25;0.55;;;18.60;99.90;;;;;;5035056;28;20167;-73
2023/07/31 10:50:49;;;;;;;1.00;0.73;;;18.60;99.90;;;;;;5034723;28;20050;-73
2023/07/31 10:53:26;;;;;;;0.82;0.50;;;18.80;99.90;;;;;;5035148;28;20048;-73
2023/07/31 10:55:52;;;;;;;1.10;0.50;;;18.90;99.90;;;;;;5034852;28;20038;-73
2023/07/31 10:58:22;;;;;;;0.73;0.60;;;18.80;99.90;;;;;;5035114;28;20033;-73
2023/07/31 11:00:47;;;;;;;0.82;0.40;;;18.80;99.90;;;;;;5034700;28;20029;-72
2023/07/31 11:03:14;;;;;;;0.80;0.50;;;18.80;99.90;;;;;;5034708;28;20084;-73
2023/07/31 11:05:46;;;;;;;0.88;0.30;;;19.00;99.90;;;;;;5018263;28;20080;-73
2023/07/31 11:08:22;;;;;;;0.15;0.15;;;19.00;99.90;;;;;;5034708;28;20502;-73
2023/07/31 11:11:01;;;;;;;0.23;0.23;;;18.90;99.90;;;;;;5018018;28;20072;-73
2023/07/31 11:13:54;;;;;;;0.70;0.38;;;18.90;99.90;;;;;;5034587;28;20120;-73
2023/07/31 11:16:24;;;;;;;0.32;0.20;;;19.00;99.90;;;;;;5026144;28;20103;-73
2023/07/31 11:18:51;;;;;;;1.40;0.20;;;19.10;99.90;;;;;;5017922;28;20037;-73
2023/07/31 11:21:21;;;;;;;1.05;0.28;;;19.20;99.90;;;;;;5034321;28;20044;-72
2023/07/31 11:23:52;;;;;;;1.35;0.30;;;19.40;99.90;;;;;;5034384;28;20049;-72
2023/07/31 11:26:19;;;;;;;2.20;0.30;;;19.50;99.90;;;;;;5034306;28;20048;-73
2023/07/31 11:28:48;;;;;;;2.78;0.40;;;19.60;99.90;;;;;;5034426;28;20115;-72
2023/07/31 11:31:14;;;;;;;1.92;0.40;;;19.60;99.90;;;;;;5034055;28;20044;-77
2023/07/31 11:33:40;;;;;;;0.98;0.40;;;19.60;99.90;;;;;;5034169;28;20037;-75
2023/07/31 11:36:14;;;;;;;2.45;0.40;;;19.50;99.90;;;;;;5034152;28;20040;-75
2023/07/31 11:38:39;;;;;;;1.98;0.70;;;19.60;99.90;;;;;;5034152;28;20037;-75
2023/07/31 11:41:05;;;;;;;2.17;0.60;;;19.40;99.90;;;;;;5034160;28;20052;-75
2023/07/31 11:43:31;;;;;;;4.75;0.90;;;19.50;99.90;;;;;;5033961;28;20071;-75
2023/07/31 11:46:02;;;;;;;2.22;0.90;;;19.50;99.90;;;;;;5017443;28;20498;-74
2023/07/31 11:48:33;;;;;;;3.17;1.02;;;19.50;99.90;;;;;;5033904;28;20044;-75
2023/07/31 11:51:00;;;;;;;3.05;0.90;;;19.50;99.90;;;;;;5033649;28;20045;-76
2023/07/31 11:53:41;;;;;;;4.82;1.48;;;19.60;99.90;;;;;;5034263;28;20187;-76
2023/07/31 11:56:11;;;;;;;6.28;0.95;;;19.70;99.90;;;;;;5033999;28;20398;-76
2023/07/31 11:58:38;;;;;;;2.13;0.50;;;19.70;99.90;;;;;;5033688;28;20041;-76
2023/07/31 12:01:04;;;;;;;2.38;0.40;;;19.50;99.90;;;;;;5017285;28;20051;-76
2023/07/31 12:03:32;;;;;;;0.73;0.22;;;19.50;99.90;;;;;;5033549;28;20498;-76
2023/07/31 12:05:59;;;;;;;1.95;0.40;;;19.40;99.90;;;;;;5033779;28;20401;-76
2023/07/31 12:08:25;;;;;;;0.40;0.22;;;19.20;99.90;;;;;;5033509;28;20045;-76
2023/07/31 12:10:51;;;;;;;2.55;0.40;;;19.20;99.90;;;;;;5016808;28;20506;-76
2023/07/31 12:13:26;;;;;;;1.95;0.40;;;19.30;99.90;;;;;;5016891;28;20049;-76
2023/07/31 12:16:00;;;;;;;1.00;0.40;;;19.10;99.90;;;;;;5016923;28;20400;-76
2023/07/31 12:18:27;;;;;;;1.00;0.30;;;19.20;99.90;;;;;;5033396;28;20128;-76
2023/07/31 12:20:57;;;;;;;1.63;0.35;;;18.90;99.90;;;;;;5033400;28;20033;-76
2023/07/31 12:23:33;;;;;;;1.75;0.63;;;19.00;99.90;;;;;;5016629;28;20037;-75
2023/07/31 12:26:15;;;;;;;2.47;0.60;;;18.90;99.90;;;;;;5033273;28;20041;-76
2023/07/31 12:28:41;;;;;;;2.70;0.85;;;19.00;99.90;;;;;;5016735;28;20037;-76
2023/07/31 12:31:10;;;;;;;2.50;0.70;;;18.90;99.90;;;;;;5033147;28;20034;-76
2023/07/31 12:33:38;;;;;;;1.90;0.80;;;19.00;99.90;;;;;;5016845;28;20525;-76
2023/07/31 12:36:09;;;;;;;2.50;0.60;;;19.30;99.90;;;;;;5033261;28;20041;-75
2023/07/31 12:38:35;;;;;;;2.72;0.65;;;19.50;99.90;;;;;;5033253;28;20042;-76
2023/07/31 12:41:00;;;;;;;3.03;0.57;;;19.50;99.90;;;;;;5032402;28;20044;-76
2023/07/31 12:43:26;;;;;;;2.40;0.50;;;19.70;99.90;;;;;;5032802;28;20041;-76
2023/07/31 12:45:54;;;;;;;2.35;0.73;;;19.70;99.90;;;;;;5033029;28;20037;-76